createdAt,value
2024-05-09T00:01:31.833Z,100766.56
2024-05-09T00:04:35.006Z,100761.53
2024-05-09T00:07:38.502Z,100765.13
2024-05-09T00:10:41.749Z,100768.63
2024-05-09T00:13:45.294Z,100758.53
2024-05-09T00:16:50.148Z,100757.34
2024-05-09T00:19:53.757Z,100755.91
2024-05-09T00:22:57.187Z,100759.84
2024-05-09T00:26:00.244Z,100753.50
2024-05-09T00:29:03.726Z,100753.69
2024-05-09T00:32:08.281Z,100757.75
2024-05-09T00:35:11.886Z,100752.44
2024-05-09T00:38:15.351Z,100750.13
2024-05-09T00:41:19.909Z,100750.13
2024-05-09T00:44:24.648Z,100742.47
2024-05-09T00:47:28.705Z,100751.00
2024-05-09T00:50:38.093Z,100747.59
2024-05-09T00:53:42.378Z,100749.47
2024-05-09T00:56:46.445Z,100744.44
2024-05-09T00:59:51.739Z,100739.03
2024-05-09T01:02:55.351Z,100743.75
2024-05-09T01:05:59.994Z,100738.38
2024-05-09T01:09:04.513Z,100744.28
2024-05-09T01:12:08.107Z,100739.09
2024-05-09T01:15:12.104Z,100739.09
2024-05-09T01:18:16.518Z,100741.75
2024-05-09T01:21:19.732Z,100746.09
2024-05-09T01:24:23.254Z,100746.59
2024-05-09T01:27:26.761Z,100749.78
2024-05-09T01:30:35.258Z,100740.28
2024-05-09T01:33:40.858Z,100743.88
2024-05-09T01:36:43.893Z,100745.59
2024-05-09T01:39:47.883Z,100747.22
2024-05-09T01:42:50.759Z,100754.16
2024-05-09T01:45:54.292Z,100762.00
2024-05-09T01:48:57.681Z,100750.63
2024-05-09T01:52:02.697Z,100739.81
2024-05-09T01:55:07.176Z,100746.47
2024-05-09T01:58:10.228Z,100752.91
2024-05-09T02:01:13.790Z,100738.44
2024-05-09T02:04:17.421Z,100747.06
2024-05-09T02:07:20.451Z,100740.59
2024-05-09T02:10:30.184Z,100733.81
2024-05-09T02:13:36.210Z,100728.34
2024-05-09T02:16:39.215Z,100731.19
2024-05-09T02:19:43.608Z,100731.19
2024-05-09T02:22:46.630Z,100723.06
2024-05-09T02:25:50.520Z,100738.19
2024-05-09T02:28:54.017Z,100734.84
2024-05-09T02:31:57.682Z,100725.91
2024-05-09T02:35:00.746Z,100732.31
2024-05-09T02:38:05.530Z,100740.34
2024-05-09T02:41:09.705Z,100735.91
2024-05-09T02:44:14.183Z,100734.19
2024-05-09T02:47:17.805Z,100734.69
2024-05-09T02:50:29.693Z,100734.25
2024-05-09T02:53:40.288Z,100737.19
2024-05-09T02:56:43.870Z,100734.88
2024-05-09T02:59:47.781Z,100740.69
2024-05-09T03:02:50.872Z,100739.91
2024-05-09T03:05:54.414Z,100753.19
2024-05-09T03:08:57.310Z,100752.94
2024-05-09T03:12:01.236Z,100761.00
2024-05-09T03:15:05.251Z,100759.28
2024-05-09T03:18:09.292Z,100760.81
2024-05-09T03:21:13.228Z,100763.84
2024-05-09T03:24:18.934Z,100757.38
2024-05-09T03:27:24.852Z,100759.91
2024-05-09T03:30:36.361Z,100760.00
2024-05-09T03:33:44.444Z,100768.34
2024-05-09T03:36:48.025Z,100769.56
2024-05-09T03:39:50.948Z,100766.47
2024-05-09T03:42:54.379Z,100778.31
2024-05-09T03:45:58.119Z,100781.81
2024-05-09T03:49:02.212Z,100778.31
2024-05-09T03:52:06.286Z,100786.84
2024-05-09T03:55:12.301Z,100778.22
2024-05-09T03:58:15.981Z,100779.75
2024-05-09T04:01:20.549Z,100779.16
2024-05-09T04:04:25.035Z,100790.84
2024-05-09T04:07:28.070Z,100789.53
2024-05-09T04:10:34.115Z,100783.88
2024-05-09T04:13:38.603Z,100780.41
2024-05-09T04:16:43.084Z,100780.28
2024-05-09T04:19:47.028Z,100781.91
2024-05-09T04:22:51.539Z,100792.13
2024-05-09T04:25:55.164Z,100793.44
2024-05-09T04:28:59.751Z,100796.53
2024-05-09T04:32:07.500Z,100790.59
2024-05-09T04:35:11.012Z,100793.16
2024-05-09T04:38:15.385Z,100793.31
2024-05-09T04:41:20.309Z,100800.56
2024-05-09T04:44:24.929Z,100805.63
2024-05-09T04:47:29.507Z,100803.59
2024-05-09T04:50:37.880Z,100810.34
2024-05-09T04:53:43.902Z,100817.94
2024-05-09T04:56:47.806Z,100824.94
2024-05-09T04:59:51.487Z,100827.34
2024-05-09T05:02:55.181Z,100837.91
2024-05-09T05:05:59.512Z,100841.34
2024-05-09T05:09:03.567Z,100833.63
2024-05-09T05:12:27.633Z,100840.00
2024-05-09T05:15:31.265Z,100834.41
2024-05-09T05:18:34.704Z,100830.97
2024-05-09T05:21:38.179Z,100831.56
2024-05-09T05:24:41.654Z,100827.25
2024-05-09T05:27:45.112Z,100828.19
2024-05-09T05:30:49.879Z,100836.47
2024-05-09T05:33:54.617Z,100840.88
2024-05-09T05:36:59.084Z,100841.44
2024-05-09T05:40:11.876Z,100846.69
2024-05-09T05:43:24.695Z,100844.03
2024-05-09T05:46:29.270Z,100849.91
2024-05-09T05:49:34.790Z,100855.53
2024-05-09T05:52:38.279Z,100848.84
2024-05-09T05:55:41.916Z,100853.25
2024-05-09T05:58:49.455Z,100865.13
2024-05-09T06:01:52.446Z,100861.19
2024-05-09T06:04:55.647Z,100874.00
2024-05-09T06:07:59.335Z,100877.88
2024-05-09T06:11:03.329Z,100866.66
2024-05-09T06:14:07.163Z,100865.81
2024-05-09T06:17:10.794Z,100873.31
2024-05-09T06:20:20.577Z,100876.41
2024-05-09T06:23:29.882Z,100877.66
2024-05-09T06:26:33.058Z,100878.66
2024-05-09T06:29:38.615Z,100872.75
2024-05-09T06:32:45.179Z,100877.41
2024-05-09T06:35:49.749Z,100883.78
2024-05-09T06:38:53.200Z,100891.41
2024-05-09T06:41:56.835Z,100892.63
2024-05-09T06:45:00.291Z,100892.72
2024-05-09T06:48:04.127Z,100893.84
2024-05-09T06:51:07.974Z,100895.16
2024-05-09T06:54:11.804Z,100896.25
2024-05-09T06:57:24.370Z,100891.53
2024-05-09T07:00:37.370Z,100892.44
2024-05-09T07:03:43.342Z,100899.66
2024-05-09T07:06:47.313Z,100893.41
2024-05-09T07:09:51.216Z,100896.75
2024-05-09T07:12:56.715Z,100898.81
2024-05-09T07:16:00.689Z,100894.97
2024-05-09T07:19:04.495Z,100896.19
2024-05-09T07:22:08.194Z,100899.56
2024-05-09T07:25:11.675Z,100897.03
2024-05-09T07:28:19.126Z,100899.88
2024-05-09T07:31:23.805Z,100906.59
2024-05-09T07:34:27.406Z,100911.38
2024-05-09T07:37:30.333Z,100908.09
2024-05-09T07:40:36.567Z,100916.34
2024-05-09T07:43:41.184Z,100916.56
2024-05-09T07:47:48.301Z,100909.09
2024-05-09T07:53:39.081Z,100921.41
2024-05-09T07:56:47.597Z,100923.63
2024-05-09T07:59:51.246Z,100929.22
2024-05-09T08:02:55.121Z,100917.34
2024-05-09T08:05:59.088Z,100924.81
2024-05-09T08:09:07.698Z,100921.03
2024-05-09T08:12:14.338Z,100925.72
2024-05-09T08:15:18.338Z,100925.50
2024-05-09T08:18:21.466Z,100931.63
2024-05-09T08:21:25.134Z,100930.00
2024-05-09T08:24:28.703Z,100935.69
2024-05-09T08:27:32.174Z,100928.84
2024-05-09T08:30:37.421Z,100932.69
2024-05-09T08:33:51.291Z,100933.91
2024-05-09T08:37:03.716Z,100933.50
2024-05-09T08:40:23.607Z,100937.78
2024-05-09T08:43:34.178Z,100933.81
2024-05-09T08:46:37.910Z,100935.88
2024-05-09T08:49:42.555Z,100938.25
2024-05-09T08:52:47.605Z,100942.78
2024-05-09T08:55:51.848Z,100940.41
2024-05-09T08:59:01.564Z,100944.91
2024-05-09T09:02:06.721Z,100937.09
2024-05-09T09:05:16.429Z,100944.56
2024-05-09T09:08:20.533Z,100948.94
2024-05-09T09:11:23.677Z,100945.47
2024-05-09T09:14:27.276Z,100942.91
2024-05-09T09:17:30.366Z,100941.31
2024-05-09T09:20:36.343Z,100936.25
2024-05-09T09:23:41.939Z,100936.19
2024-05-09T09:27:17.694Z,100942.88
2024-05-09T09:30:46.301Z,100938.22
2024-05-09T09:34:38.129Z,100932.16
2024-05-09T09:44:00.645Z,100929.84
2024-05-09T09:47:40.073Z,100927.31
2024-05-09T09:51:11.108Z,100920.19
2024-05-09T09:55:15.999Z,100924.13
2024-05-09T10:04:18.896Z,100925.78
2024-05-09T10:07:22.821Z,100922.47
2024-05-09T10:10:31.748Z,100924.00
2024-05-09T10:13:36.260Z,100917.56
2024-05-09T10:17:06.907Z,100908.38
2024-05-09T10:21:31.946Z,100913.59
2024-05-09T10:25:38.003Z,100907.47
2024-05-09T10:30:01.007Z,100899.47
2024-05-09T10:33:11.254Z,100895.31
2024-05-09T10:36:19.764Z,100885.00
2024-05-09T10:39:25.403Z,100880.75
2024-05-09T10:42:29.575Z,100887.81
2024-05-09T10:45:35.920Z,100877.78
2024-05-09T10:48:43.885Z,100874.84
2024-05-09T10:51:48.993Z,100875.56
2024-05-09T10:54:54.190Z,100862.94
2024-05-09T10:57:57.671Z,100865.69
2024-05-09T11:01:05.436Z,100858.63
2024-05-09T11:04:11.182Z,100853.31
2024-05-09T11:07:16.686Z,100856.09
2024-05-09T11:10:27.395Z,100840.44
2024-05-09T11:13:40.402Z,100843.06
2024-05-09T11:16:43.908Z,100842.59
2024-05-09T11:19:47.507Z,100843.94
2024-05-09T11:22:51.531Z,100832.78
2024-05-09T11:25:56.938Z,100834.75
2024-05-09T11:29:00.484Z,100839.41
2024-05-09T11:32:07.233Z,100841.81
2024-05-09T11:35:10.836Z,100828.06
2024-05-09T11:38:14.403Z,100833.13
2024-05-09T11:41:18.712Z,100820.03
2024-05-09T11:44:22.316Z,100833.63
2024-05-09T11:47:26.589Z,100825.16
2024-05-09T11:50:35.089Z,100818.78
2024-05-09T11:53:39.514Z,100819.69
2024-05-09T11:56:43.994Z,100815.22
2024-05-09T11:59:47.492Z,100807.13
2024-05-09T12:02:52.738Z,100804.97
2024-05-09T12:05:56.002Z,100804.88
2024-05-09T12:08:59.031Z,100798.94
2024-05-09T12:12:02.103Z,100795.28
2024-05-09T12:15:06.978Z,100805.25
2024-05-09T12:18:10.660Z,100800.56
2024-05-09T12:21:17.118Z,100788.00
2024-05-09T12:24:21.839Z,100787.00
2024-05-09T12:27:27.500Z,100789.75
2024-05-09T12:30:36.798Z,100782.88
2024-05-09T12:33:49.346Z,100789.16
2024-05-09T12:36:53.105Z,100788.56
2024-05-09T12:39:56.402Z,100776.06
2024-05-09T12:42:59.992Z,100774.09
2024-05-09T12:46:03.846Z,100777.06
2024-05-09T12:49:07.878Z,100779.81
2024-05-09T12:52:11.701Z,100771.50
2024-05-09T12:55:15.496Z,100771.63
2024-05-09T12:58:19.224Z,100772.19
2024-05-09T13:01:23.119Z,100767.84
2024-05-09T13:04:26.969Z,100769.38
2024-05-09T13:07:30.643Z,100763.00
2024-05-09T13:10:35.040Z,100754.47
2024-05-09T13:13:38.671Z,100753.31
2024-05-09T13:16:41.712Z,100757.59
2024-05-09T13:19:44.644Z,100758.34
2024-05-09T13:22:48.778Z,100751.03
2024-05-09T13:25:53.349Z,100757.53
2024-05-09T13:28:56.840Z,100753.91
2024-05-09T13:32:00.310Z,100758.97
2024-05-09T13:35:03.930Z,100739.41
2024-05-09T13:38:07.607Z,100748.78
2024-05-09T13:41:11.749Z,100742.56
2024-05-09T13:44:15.221Z,100739.84
2024-05-09T13:47:19.047Z,100732.16
2024-05-09T13:50:31.127Z,100735.28
2024-05-09T13:53:38.497Z,100739.53
2024-05-09T13:56:42.050Z,100737.03
2024-05-09T13:59:46.605Z,100735.47
2024-05-09T14:02:49.580Z,100730.16
2024-05-09T14:05:54.438Z,100729.44
2024-05-09T14:08:57.512Z,100728.38
2024-05-09T14:12:00.430Z,100729.38
2024-05-09T14:15:04.056Z,100731.56
2024-05-09T14:18:11.498Z,100731.13
2024-05-09T14:21:17.241Z,100718.41
2024-05-09T14:24:20.728Z,100717.09
2024-05-09T14:27:23.641Z,100711.03
2024-05-09T14:30:34.875Z,100712.72
2024-05-09T14:33:40.812Z,100708.03
2024-05-09T14:36:44.492Z,100714.13
2024-05-09T14:39:48.515Z,100706.41
2024-05-09T14:42:51.511Z,100708.31
2024-05-09T14:45:56.007Z,100699.47
2024-05-09T14:49:00.261Z,100702.03
2024-05-09T14:52:04.286Z,100703.25
2024-05-09T14:55:10.216Z,100699.66
2024-05-09T14:58:15.654Z,100698.22
2024-05-09T15:01:20.612Z,100694.13
2024-05-09T15:04:24.505Z,100696.41
2024-05-09T15:07:28.150Z,100699.56
2024-05-09T15:10:35.445Z,100694.78
2024-05-09T15:13:40.508Z,100689.00
2024-05-09T15:16:43.495Z,100692.97
2024-05-09T15:19:47.373Z,100694.03
2024-05-09T15:22:51.083Z,100693.28
2024-05-09T15:25:54.536Z,100691.66
2024-05-09T15:28:57.994Z,100689.59
2024-05-09T15:32:01.622Z,100681.84
2024-05-09T15:35:05.667Z,100679.47
2024-05-09T15:38:10.383Z,100684.34
2024-05-09T15:41:13.832Z,100685.41
2024-05-09T15:44:17.301Z,100683.19
2024-05-09T15:47:20.827Z,100679.84
2024-05-09T15:50:35.190Z,100676.91
2024-05-09T15:53:42.151Z,100684.81
2024-05-09T15:56:49.005Z,100670.44
2024-05-09T15:59:52.532Z,100674.81
2024-05-09T16:02:56.001Z,100671.75
2024-05-09T16:06:00.837Z,100675.84
2024-05-09T16:09:06.479Z,100674.81
2024-05-09T16:12:09.818Z,100671.84
2024-05-09T16:15:16.447Z,100670.31
2024-05-09T16:18:22.719Z,100669.44
2024-05-09T16:21:26.214Z,100674.28
2024-05-09T16:24:29.851Z,100679.97
2024-05-09T16:27:32.947Z,100675.06
2024-05-09T16:30:37.139Z,100681.41
2024-05-09T16:33:40.983Z,100685.00
2024-05-09T16:36:44.752Z,100684.16
2024-05-09T16:39:48.376Z,100682.81
2024-05-09T16:42:52.051Z,100680.03
2024-05-09T16:45:55.086Z,100686.03
2024-05-09T16:48:59.122Z,100682.56
2024-05-09T16:52:02.660Z,100679.41
2024-05-09T16:55:06.276Z,100681.59
2024-05-09T16:58:12.262Z,100685.94
2024-05-09T17:01:15.672Z,100677.53
2024-05-09T17:04:18.826Z,100689.06
2024-05-09T17:07:23.485Z,100690.66
2024-05-09T17:10:32.326Z,100690.72
2024-05-09T17:13:39.499Z,100693.34
2024-05-09T17:16:43.024Z,100690.16
2024-05-09T17:19:47.563Z,100697.09
2024-05-09T17:22:50.590Z,100699.44
2024-05-09T17:25:53.498Z,100692.84
2024-05-09T17:28:57.043Z,100694.41
2024-05-09T17:32:01.008Z,100694.44
2024-05-09T17:35:07.802Z,100692.00
2024-05-09T17:38:10.918Z,100692.16
2024-05-09T17:41:15.426Z,100697.53
2024-05-09T17:44:21.528Z,100694.19
2024-05-09T17:47:25.145Z,100692.38
2024-05-09T17:50:35.063Z,100697.13
2024-05-09T17:53:40.446Z,100697.13
2024-05-09T17:56:44.003Z,100698.34
2024-05-09T17:59:52.065Z,100700.47
2024-05-09T18:02:55.668Z,100695.91
2024-05-09T18:05:59.321Z,100701.09
2024-05-09T18:09:02.868Z,100705.06
2024-05-09T18:12:07.909Z,100708.09
2024-05-09T18:15:11.339Z,100711.28
2024-05-09T18:18:14.518Z,100707.28
2024-05-09T18:21:18.278Z,100712.63
2024-05-09T18:24:22.818Z,100712.91
2024-05-09T18:27:25.987Z,100717.03
2024-05-09T18:30:34.651Z,100718.66
2024-05-09T18:33:39.811Z,100721.88
2024-05-09T18:36:43.657Z,100726.56
2024-05-09T18:39:47.190Z,100723.53
2024-05-09T18:42:51.004Z,100720.88
2024-05-09T18:45:54.501Z,100729.06
2024-05-09T18:49:00.340Z,100731.63
2024-05-09T18:52:03.448Z,100742.13
2024-05-09T18:55:06.572Z,100739.53
2024-05-09T18:58:10.111Z,100741.91
2024-05-09T19:01:13.334Z,100742.44
2024-05-09T19:04:19.253Z,100744.09
2024-05-09T19:07:23.260Z,100749.72
2024-05-09T19:10:32.262Z,100753.81
2024-05-09T19:13:38.473Z,100753.94
2024-05-09T19:16:42.224Z,100757.72
2024-05-09T19:19:45.897Z,100763.44
2024-05-09T19:22:48.931Z,100767.41
2024-05-09T19:25:52.467Z,100770.09
2024-05-09T19:28:55.498Z,100770.09
2024-05-09T19:32:00.246Z,100768.34
2024-05-09T19:35:03.945Z,100785.72
2024-05-09T19:38:07.574Z,100781.13
2024-05-09T19:41:11.139Z,100780.84
2024-05-09T19:44:14.182Z,100788.09
2024-05-09T19:47:18.951Z,100797.41
2024-05-09T19:50:31.008Z,100790.81
2024-05-09T19:53:41.015Z,100792.03
2024-05-09T19:56:45.446Z,100803.78
2024-05-09T19:59:48.921Z,100796.00
2024-05-09T20:02:52.607Z,100793.44
2024-05-09T20:05:55.873Z,100794.97
2024-05-09T20:08:59.809Z,100798.34
2024-05-09T20:12:03.489Z,100797.22
2024-05-09T20:15:07.313Z,100795.28
2024-05-09T20:18:11.473Z,100800.00
2024-05-09T20:21:14.501Z,100804.78
2024-05-09T20:24:18.229Z,100804.78
2024-05-09T20:27:21.749Z,100804.97
2024-05-09T20:30:31.368Z,100807.94
2024-05-09T20:33:37.968Z,100812.47
2024-05-09T20:36:41.512Z,100820.13
2024-05-09T20:39:45.130Z,100812.03
2024-05-09T20:42:48.661Z,100816.38
2024-05-09T20:45:51.605Z,100817.91
2024-05-09T20:48:56.478Z,100819.56
2024-05-09T20:52:01.156Z,100814.97
2024-05-09T20:55:05.973Z,100822.53
2024-05-09T20:58:10.515Z,100815.50
2024-05-09T21:01:14.433Z,100825.41
2024-05-09T21:04:19.264Z,100819.91
2024-05-09T21:07:22.241Z,100822.66
2024-05-09T21:10:27.242Z,100824.97
2024-05-09T21:13:32.623Z,100826.72
2024-05-09T21:16:35.765Z,100827.91
2024-05-09T21:19:39.278Z,100841.38
2024-05-09T21:22:44.067Z,100839.50
2024-05-09T21:25:48.492Z,100832.03
2024-05-09T21:28:52.364Z,100837.28
2024-05-09T21:31:56.964Z,100840.56
2024-05-09T21:35:00.411Z,100842.78
2024-05-09T21:38:04.706Z,100846.22
2024-05-09T21:41:10.164Z,100845.00
2024-05-09T21:44:13.005Z,100848.03
2024-05-09T21:47:17.431Z,100845.44
2024-05-09T21:50:27.549Z,100848.88
2024-05-09T21:53:37.249Z,100844.53
2024-05-09T21:56:42.275Z,100848.44
2024-05-09T21:59:46.189Z,100852.78
2024-05-09T22:02:49.182Z,100858.81
2024-05-09T22:05:52.173Z,100862.00
2024-05-09T22:08:55.618Z,100858.03
2024-05-09T22:11:59.093Z,100860.69
2024-05-09T22:15:02.073Z,100875.13
2024-05-09T22:18:06.586Z,100873.97
2024-05-09T22:21:09.745Z,100879.75
2024-05-09T22:24:13.231Z,100888.69
2024-05-09T22:27:16.708Z,100889.81
2024-05-09T22:30:24.048Z,100891.03
2024-05-09T22:33:35.533Z,100888.41
2024-05-09T22:36:40.047Z,100887.97
2024-05-09T22:39:43.617Z,100889.84
2024-05-09T22:42:48.147Z,100881.63
2024-05-09T22:45:53.173Z,100884.22
2024-05-09T22:48:56.874Z,100880.94
2024-05-09T22:52:00.874Z,100884.13
2024-05-09T22:55:04.856Z,100877.88
2024-05-09T22:58:08.372Z,100873.94
2024-05-09T23:01:15.518Z,100879.56
2024-05-09T23:04:19.124Z,100881.69
2024-05-09T23:07:23.045Z,100876.97
2024-05-09T23:10:32.494Z,100874.69
2024-05-09T23:13:39.931Z,100872.41
2024-05-09T23:16:43.612Z,100870.16
2024-05-09T23:19:47.531Z,100871.34
2024-05-09T23:22:50.592Z,100867.00
2024-05-09T23:25:54.485Z,100870.09
2024-05-09T23:28:57.990Z,100870.44
2024-05-09T23:32:00.931Z,100872.75
2024-05-09T23:35:04.829Z,100866.94
2024-05-09T23:38:08.391Z,100861.41
2024-05-09T23:41:11.879Z,100865.88
2024-05-09T23:44:15.370Z,100853.97
2024-05-09T23:47:19.898Z,100851.22
2024-05-09T23:50:33.067Z,100855.22
2024-05-09T23:53:44.487Z,100853.63
2024-05-09T23:56:47.400Z,100841.63
2024-05-09T23:59:50.791Z,100848.50
